Time,TemperatureF,DewpointF,PressureIn,WindDirection,WindDirectionDegrees,WindSpeedMPH,WindSpeedGustMPH,Humidity,HourlyPrecipIn,Conditions,Clouds,dailyrainin,SolarRadiationWatts/m^2,SoftwareType,DateUTC
2013-10-11 00:02:00,28.0,27.0,-100.00,NW,309,2.0,6.0,95,0.00,,,0.41,0.000000,,2013-10-11 07:02:00,
2013-10-11 00:42:00,27.0,26.0,-100.00,NNW,331,3.0,8.0,94,0.00,,,0.41,0.000000,,2013-10-11 07:42:00,
2013-10-11 00:52:00,27.0,26.0,-100.00,NNW,331,3.0,8.0,94,0.00,,,0.41,0.000000,,2013-10-11 07:52:00,
2013-10-11 01:02:00,27.0,26.0,-100.00,NNW,331,3.0,8.0,94,0.00,,,0.41,0.000000,,2013-10-11 08:02:00,
2013-10-11 01:42:00,28.0,27.0,-100.00,WNW,293,3.0,12.0,95,0.00,,,0.41,0.000000,,2013-10-11 08:42:00,
2013-10-11 01:52:00,28.0,27.0,-100.00,WNW,293,3.0,12.0,95,0.00,,,0.41,0.000000,,2013-10-11 08:52:00,
2013-10-11 02:01:00,28.0,27.0,-100.00,WNW,293,3.0,12.0,95,0.00,,,0.41,0.000000,,2013-10-11 09:01:00,
2013-10-11 02:43:00,28.0,27.0,-100.00,North,351,4.0,9.0,96,0.00,,,0.41,0.000000,,2013-10-11 09:43:00,
2013-10-11 02:54:00,28.0,27.0,-100.00,North,351,4.0,9.0,96,0.00,,,0.41,0.000000,,2013-10-11 09:54:00,
2013-10-11 03:03:00,28.0,27.0,-100.00,North,351,4.0,9.0,96,0.00,,,0.41,0.000000,,2013-10-11 10:03:00,
2013-10-11 03:42:00,28.0,27.0,-100.00,North,4,3.0,10.0,95,0.00,,,0.41,0.000000,,2013-10-11 10:42:00,
2013-10-11 03:53:00,28.0,27.0,-100.00,North,4,3.0,10.0,95,0.00,,,0.41,0.000000,,2013-10-11 10:53:00,
2013-10-11 04:02:00,28.0,27.0,-100.00,North,4,3.0,10.0,95,0.00,,,0.41,0.000000,,2013-10-11 11:02:00,
2013-10-11 04:42:00,28.0,27.0,-100.00,NNE,32,4.0,8.0,95,0.00,,,-99.99,0.000000,,2013-10-11 11:42:00,
2013-10-11 04:52:00,28.0,27.0,-100.00,NNE,32,4.0,8.0,95,0.00,,,-99.99,0.000000,,2013-10-11 11:52:00,
2013-10-11 05:02:00,28.0,27.0,-100.00,NNE,32,4.0,8.0,95,0.00,,,-99.99,0.000000,,2013-10-11 12:02:00,
2013-10-11 05:42:00,27.0,26.0,-100.00,NE,49,4.0,10.0,95,0.00,,,-99.99,0.000000,,2013-10-11 12:42:00,
2013-10-11 05:52:00,27.0,26.0,-100.00,NE,49,4.0,10.0,95,0.00,,,-99.99,0.000000,,2013-10-11 12:52:00,
2013-10-11 06:01:00,27.0,26.0,-100.00,NE,49,4.0,10.0,95,0.00,,,-99.99,0.000000,,2013-10-11 13:01:00,
2013-10-11 06:43:00,27.0,26.0,-100.00,NE,42,4.0,9.0,94,0.00,,,-99.99,0.000000,,2013-10-11 13:43:00,
2013-10-11 06:53:00,27.0,26.0,-100.00,NE,42,4.0,9.0,94,0.00,,,-99.99,0.000000,,2013-10-11 13:53:00,
2013-10-11 07:02:00,27.0,26.0,-100.00,NE,42,4.0,9.0,94,0.00,,,-99.99,0.000000,,2013-10-11 14:02:00,
2013-10-11 07:42:00,26.0,24.0,-100.00,NE,53,4.0,7.0,93,0.00,,,0.41,4.000000,,2013-10-11 14:42:00,
2013-10-11 07:52:00,26.0,24.0,-100.00,NE,53,4.0,7.0,93,0.00,,,0.41,4.000000,,2013-10-11 14:52:00,
2013-10-11 08:02:00,26.0,24.0,-100.00,NE,53,4.0,7.0,93,0.00,,,0.41,4.000000,,2013-10-11 15:02:00,
2013-10-11 08:44:00,35.0,31.0,-100.00,NE,45,2.0,5.0,84,0.01,,,0.42,82.000000,,2013-10-11 15:44:00,
2013-10-11 08:54:00,35.0,31.0,-100.00,NE,45,2.0,5.0,84,0.01,,,0.42,82.000000,,2013-10-11 15:54:00,
2013-10-11 09:03:00,35.0,31.0,-100.00,NE,45,2.0,5.0,84,0.01,,,0.42,82.000000,,2013-10-11 16:03:00,
2013-10-11 09:43:00,47.0,36.0,-100.00,ENE,62,2.0,5.0,65,0.05,,,0.47,291.000000,,2013-10-11 16:43:00,
2013-10-11 09:53:00,47.0,36.0,-100.00,ENE,62,2.0,5.0,65,0.05,,,0.47,291.000000,,2013-10-11 16:53:00,
2013-10-11 10:03:00,47.0,36.0,-100.00,ENE,62,2.0,5.0,65,0.05,,,0.47,291.000000,,2013-10-11 17:03:00,
2013-10-11 11:43:00,55.0,37.0,-100.00,West,272,2.0,5.0,50,0.10,,,0.65,670.000000,,2013-10-11 18:43:00,
2013-10-11 11:52:00,55.0,37.0,-100.00,West,272,2.0,5.0,50,0.10,,,0.65,670.000000,,2013-10-11 18:52:00,
2013-10-11 12:02:00,55.0,37.0,-100.00,West,272,2.0,5.0,50,0.10,,,0.65,670.000000,,2013-10-11 19:02:00,
2013-10-11 12:43:00,48.0,36.0,-100.00,SW,218,2.0,6.0,64,0.13,,,0.77,682.000000,,2013-10-11 19:43:00,
2013-10-11 12:52:00,48.0,36.0,-100.00,SW,218,2.0,6.0,64,0.13,,,0.77,682.000000,,2013-10-11 19:52:00,
2013-10-11 13:02:00,48.0,36.0,-100.00,SW,218,2.0,6.0,64,0.13,,,0.77,682.000000,,2013-10-11 20:02:00,
2013-10-11 13:43:00,44.0,36.0,-100.00,SW,221,3.0,5.0,73,0.01,,,0.63,445.000000,,2013-10-11 20:43:00,
2013-10-11 13:53:00,44.0,36.0,-100.00,SW,221,3.0,5.0,73,0.01,,,0.63,445.000000,,2013-10-11 20:53:00,
2013-10-11 14:02:00,44.0,36.0,-100.00,SW,221,3.0,5.0,73,0.01,,,0.63,445.000000,,2013-10-11 21:02:00,
2013-10-11 14:43:00,41.0,35.0,-100.00,SW,233,2.0,7.0,78,0.00,,,-99.99,225.000000,,2013-10-11 21:43:00,
2013-10-11 14:55:00,41.0,35.0,-100.00,SW,233,2.0,7.0,78,0.00,,,-99.99,225.000000,,2013-10-11 21:55:00,
2013-10-11 15:04:00,41.0,35.0,-100.00,SW,233,2.0,7.0,78,0.00,,,-99.99,225.000000,,2013-10-11 22:04:00,
2013-10-11 15:43:00,43.0,35.0,-100.00,WSW,249,1.0,7.0,73,0.00,,,0.44,285.000000,,2013-10-11 22:43:00,
2013-10-11 15:54:00,43.0,35.0,-100.00,WSW,249,1.0,7.0,73,0.00,,,0.44,285.000000,,2013-10-11 22:54:00,
2013-10-11 16:03:00,43.0,35.0,-100.00,WSW,249,1.0,7.0,73,0.00,,,0.44,285.000000,,2013-10-11 23:03:00,
2013-10-11 16:42:00,48.0,34.0,-100.00,West,265,3.0,8.0,58,0.00,,,0.41,455.000000,,2013-10-11 23:42:00,
2013-10-11 16:53:00,48.0,34.0,-100.00,West,265,3.0,8.0,58,0.00,,,0.41,455.000000,,2013-10-11 23:53:00,
2013-10-11 17:02:00,48.0,34.0,-100.00,West,265,3.0,8.0,58,0.00,,,0.41,455.000000,,2013-10-12 00:02:00,
2013-10-11 17:42:00,42.0,33.0,-100.00,West,260,2.0,6.0,69,0.00,,,0.38,172.000000,,2013-10-12 00:42:00,
2013-10-11 17:53:00,42.0,33.0,-100.00,West,260,2.0,6.0,69,0.00,,,0.38,172.000000,,2013-10-12 00:53:00,
2013-10-11 18:02:00,42.0,33.0,-100.00,West,260,2.0,6.0,69,0.00,,,0.38,172.000000,,2013-10-12 01:02:00,
2013-10-11 18:42:00,35.0,29.0,-100.00,NNW,327,2.0,5.0,78,0.00,,,0.38,45.000000,,2013-10-12 01:42:00,
2013-10-11 18:52:00,35.0,29.0,-100.00,NNW,327,2.0,5.0,78,0.00,,,0.38,45.000000,,2013-10-12 01:52:00,
2013-10-11 19:02:00,35.0,29.0,-100.00,NNW,327,2.0,5.0,78,0.00,,,0.38,45.000000,,2013-10-12 02:02:00,
2013-10-11 19:42:00,32.0,28.0,-100.00,NNE,15,3.0,4.0,84,0.00,,,0.38,0.000000,,2013-10-12 02:42:00,
2013-10-11 19:52:00,32.0,28.0,-100.00,NNE,15,3.0,4.0,84,0.00,,,0.38,0.000000,,2013-10-12 02:52:00,
2013-10-11 20:02:00,32.0,28.0,-100.00,NNE,15,3.0,4.0,84,0.00,,,0.38,0.000000,,2013-10-12 03:02:00,
2013-10-11 20:44:00,29.0,26.0,-100.00,NE,39,3.0,4.0,89,0.00,,,0.38,0.000000,,2013-10-12 03:44:00,
2013-10-11 20:54:00,29.0,26.0,-100.00,NE,39,3.0,4.0,89,0.00,,,0.38,0.000000,,2013-10-12 03:54:00,
2013-10-11 21:04:00,29.0,26.0,-100.00,NE,39,3.0,4.0,89,0.00,,,0.38,0.000000,,2013-10-12 04:04:00,
2013-10-11 21:44:00,28.0,26.0,-100.00,NE,49,5.0,5.0,92,0.00,,,0.38,0.000000,,2013-10-12 04:44:00,
2013-10-11 21:54:00,28.0,26.0,-100.00,NE,49,5.0,5.0,92,0.00,,,0.38,0.000000,,2013-10-12 04:54:00,
2013-10-11 22:03:00,28.0,26.0,-100.00,NE,49,5.0,5.0,92,0.00,,,0.38,0.000000,,2013-10-12 05:03:00,
2013-10-11 22:43:00,27.0,25.0,-100.00,NE,44,4.0,5.0,93,0.00,,,0.38,0.000000,,2013-10-12 05:43:00,
2013-10-11 22:52:00,27.0,25.0,-100.00,NE,44,4.0,5.0,93,0.00,,,0.38,0.000000,,2013-10-12 05:52:00,
2013-10-11 23:02:00,27.0,25.0,-100.00,NE,44,4.0,5.0,93,0.00,,,0.38,0.000000,,2013-10-12 06:02:00,
2013-10-11 23:42:00,28.0,26.0,-100.00,ENE,58,3.0,5.0,93,0.00,,,0.38,0.000000,,2013-10-12 06:42:00,
2013-10-11 23:52:00,28.0,26.0,-100.00,ENE,58,3.0,5.0,93,0.00,,,0.38,0.000000,,2013-10-12 06:52:00,